createdAt,value
2023-05-21T00:00:27.411Z,10.20
2023-05-21T00:01:27.349Z,10.20
2023-05-21T00:02:27.332Z,9.70
2023-05-21T00:03:27.404Z,10.10
2023-05-21T00:04:27.351Z,9.90
2023-05-21T00:05:27.283Z,10.30
2023-05-21T00:06:27.457Z,10.30
2023-05-21T00:07:27.324Z,10.50
2023-05-21T00:08:27.238Z,10.80
2023-05-21T00:09:27.308Z,10.50
2023-05-21T00:10:27.458Z,10.70
2023-05-21T00:11:27.201Z,10.50
2023-05-21T00:12:27.208Z,10.60
2023-05-21T00:13:27.196Z,10.60
2023-05-21T00:14:27.254Z,11.00
2023-05-21T00:15:27.223Z,11.00
2023-05-21T00:16:27.356Z,10.40
2023-05-21T00:17:27.156Z,9.80
2023-05-21T00:18:27.167Z,10.60
2023-05-21T00:19:27.297Z,10.50
2023-05-21T00:20:27.176Z,11.40
2023-05-21T00:21:27.097Z,10.20
2023-05-21T00:22:27.097Z,11.00
2023-05-21T00:23:27.082Z,10.50
2023-05-21T00:24:27.143Z,10.30
2023-05-21T00:25:27.205Z,10.10
2023-05-21T00:26:27.109Z,10.50
2023-05-21T00:27:27.096Z,10.60
2023-05-21T00:28:27.083Z,11.00
2023-05-21T00:29:27.062Z,11.00
2023-05-21T00:30:27.119Z,10.80
2023-05-21T00:31:27.095Z,11.20
2023-05-21T00:32:27.048Z,11.30
2023-05-21T00:33:27.023Z,11.10
2023-05-21T00:34:27.104Z,11.00
2023-05-21T00:35:27.004Z,11.20
2023-05-21T00:36:27.077Z,11.20
2023-05-21T00:37:26.982Z,11.10
2023-05-21T00:38:27.046Z,11.90
2023-05-21T00:39:26.958Z,11.20
2023-05-21T00:40:26.940Z,11.50
2023-05-21T00:41:26.997Z,10.70
2023-05-21T00:42:26.785Z,11.10
2023-05-21T00:43:26.946Z,10.80
2023-05-21T00:44:26.927Z,11.50
2023-05-21T00:45:26.929Z,11.40
2023-05-21T00:46:27.065Z,11.50
2023-05-21T00:47:27.014Z,12.00
2023-05-21T00:48:26.896Z,11.50
2023-05-21T00:49:26.891Z,11.30
2023-05-21T00:50:26.969Z,11.30
2023-05-21T00:51:26.752Z,11.10
2023-05-21T00:52:27.069Z,11.70
2023-05-21T00:53:26.890Z,11.20
2023-05-21T00:54:26.786Z,11.40
2023-05-21T00:55:26.770Z,11.40
2023-05-21T00:56:26.826Z,11.50
2023-05-21T00:57:26.818Z,11.50
2023-05-21T00:58:26.818Z,10.90
2023-05-21T00:59:26.798Z,11.20
2023-05-21T01:00:26.728Z,10.80
2023-05-21T01:01:26.797Z,10.70
2023-05-21T01:02:26.793Z,10.90
2023-05-21T01:03:27.025Z,11.20
2023-05-21T01:04:26.741Z,11.00
2023-05-21T01:05:26.679Z,11.10
2023-05-21T01:06:26.714Z,11.00
2023-05-21T01:07:26.538Z,11.20
2023-05-21T01:08:26.781Z,11.50
2023-05-21T01:09:26.639Z,11.70
2023-05-21T01:10:26.648Z,11.60
2023-05-21T01:11:26.666Z,11.50
2023-05-21T01:12:26.614Z,11.50
2023-05-21T01:13:26.638Z,11.40
2023-05-21T01:14:26.641Z,11.50
2023-05-21T01:15:26.557Z,11.20
2023-05-21T01:16:26.603Z,11.30
2023-05-21T01:17:26.626Z,11.40
2023-05-21T01:18:26.764Z,11.20
2023-05-21T01:19:26.641Z,11.30
2023-05-21T01:20:26.591Z,11.70
2023-05-21T01:21:26.401Z,11.30
2023-05-21T01:22:26.517Z,11.80
2023-05-21T01:23:26.635Z,11.50
2023-05-21T01:24:26.550Z,11.10
2023-05-21T01:25:26.526Z,11.00
2023-05-21T01:26:26.445Z,11.90
2023-05-21T01:27:26.441Z,11.20
2023-05-21T01:28:26.444Z,12.20
2023-05-21T01:29:26.532Z,11.00
2023-05-21T01:30:26.542Z,11.70
2023-05-21T01:31:26.562Z,11.10
2023-05-21T01:32:26.493Z,11.20
2023-05-21T01:33:26.458Z,11.50
2023-05-21T01:34:26.405Z,11.60
2023-05-21T01:35:26.491Z,11.40
2023-05-21T01:36:26.408Z,12.10
2023-05-21T01:37:26.382Z,11.40
2023-05-21T01:38:26.394Z,11.20
2023-05-21T01:39:26.381Z,11.60
2023-05-21T01:40:26.391Z,11.10
2023-05-21T01:41:26.399Z,11.00
2023-05-21T01:42:26.266Z,10.80
2023-05-21T01:43:26.363Z,10.90
2023-05-21T01:44:26.348Z,11.50
2023-05-21T01:45:26.337Z,11.50
2023-05-21T01:46:26.478Z,11.40
2023-05-21T01:47:26.319Z,11.60
2023-05-21T01:48:26.292Z,11.80
2023-05-21T01:49:26.275Z,12.30
2023-05-21T01:50:26.277Z,11.60
2023-05-21T01:51:26.400Z,11.50
2023-05-21T01:52:26.239Z,11.50
2023-05-21T01:53:26.307Z,11.70
2023-05-21T01:54:26.222Z,11.40
2023-05-21T01:55:26.223Z,11.40
2023-05-21T01:56:26.189Z,11.90
2023-05-21T01:57:26.285Z,11.00
2023-05-21T01:58:26.045Z,11.20
2023-05-21T01:59:26.045Z,11.30
2023-05-21T02:00:26.100Z,11.30
2023-05-21T02:01:26.261Z,11.50
2023-05-21T02:02:26.159Z,11.00
2023-05-21T02:03:26.163Z,11.70
2023-05-21T02:04:26.060Z,12.00
2023-05-21T02:05:26.007Z,11.90
2023-05-21T02:06:26.127Z,12.40
2023-05-21T02:07:26.001Z,12.00
2023-05-21T02:08:26.036Z,12.00
2023-05-21T02:09:25.982Z,11.10
2023-05-21T02:10:25.928Z,11.90
2023-05-21T02:11:25.990Z,11.70
2023-05-21T02:12:25.949Z,13.20
2023-05-21T02:13:26.702Z,12.00
2023-05-21T02:14:25.897Z,12.70
2023-05-21T02:15:25.909Z,12.40
2023-05-21T02:16:25.844Z,13.00
2023-05-21T02:17:25.804Z,12.90
2023-05-21T02:18:26.102Z,12.40
2023-05-21T02:19:25.863Z,12.70
2023-05-21T02:20:25.914Z,12.20
2023-05-21T02:21:25.888Z,12.20
2023-05-21T02:22:25.854Z,12.30
2023-05-21T02:23:25.798Z,12.50
2023-05-21T02:24:25.879Z,12.00
2023-05-21T02:25:25.829Z,12.60
2023-05-21T02:26:25.825Z,12.00
2023-05-21T02:27:25.818Z,12.30
2023-05-21T02:28:25.808Z,12.20
2023-05-21T02:29:25.794Z,11.80
2023-05-21T02:30:25.801Z,12.30
2023-05-21T02:31:25.875Z,12.50
2023-05-21T02:32:25.831Z,12.80
2023-05-21T02:33:25.768Z,12.30
2023-05-21T02:34:25.841Z,12.80
2023-05-21T02:35:25.808Z,13.10
2023-05-21T02:36:25.814Z,12.40
2023-05-21T02:37:25.718Z,13.10
2023-05-21T02:38:25.709Z,12.20
2023-05-21T02:39:25.681Z,12.50
2023-05-21T02:40:25.683Z,12.50
2023-05-21T02:41:25.676Z,12.60
2023-05-21T02:42:25.742Z,12.10
2023-05-21T02:43:25.662Z,13.10
2023-05-21T02:44:25.657Z,12.60
2023-05-21T02:45:25.744Z,12.50
2023-05-21T02:46:25.748Z,13.00
2023-05-21T02:47:25.636Z,12.30
2023-05-21T02:48:25.661Z,12.70
2023-05-21T02:49:25.379Z,12.70
2023-05-21T02:50:25.518Z,13.10
2023-05-21T02:51:25.508Z,12.30
2023-05-21T02:52:25.400Z,12.80
2023-05-21T02:53:25.462Z,12.40
2023-05-21T02:54:25.434Z,12.90
2023-05-21T02:55:25.408Z,13.20
2023-05-21T02:56:25.469Z,12.60
2023-05-21T02:57:25.457Z,12.90
2023-05-21T02:58:25.475Z,13.30
2023-05-21T02:59:25.392Z,12.90
2023-05-21T03:00:25.389Z,13.00
2023-05-21T03:01:25.454Z,13.20
2023-05-21T03:02:25.530Z,12.70
2023-05-21T03:03:25.596Z,12.90
2023-05-21T03:04:25.403Z,13.20
2023-05-21T03:05:25.307Z,12.80
2023-05-21T03:06:25.316Z,13.10
2023-05-21T03:07:25.269Z,12.80
2023-05-21T03:08:25.358Z,12.60
2023-05-21T03:09:25.386Z,13.10
2023-05-21T03:10:25.314Z,12.80
2023-05-21T03:11:25.248Z,13.20
2023-05-21T03:12:25.269Z,12.80
2023-05-21T03:13:25.233Z,13.00
2023-05-21T03:14:25.302Z,12.70
2023-05-21T03:15:25.333Z,12.40
2023-05-21T03:16:25.220Z,12.60
2023-05-21T03:17:25.235Z,13.40
2023-05-21T03:18:25.072Z,12.70
2023-05-21T03:19:25.263Z,12.30
2023-05-21T03:20:25.243Z,12.10
2023-05-21T03:21:25.030Z,12.10
2023-05-21T03:22:25.210Z,12.40
2023-05-21T03:23:25.120Z,13.40
2023-05-21T03:24:25.108Z,12.80
2023-05-21T03:25:25.445Z,12.90
2023-05-21T03:26:25.102Z,12.60
2023-05-21T03:27:25.111Z,12.60
2023-05-21T03:28:25.088Z,12.40
2023-05-21T03:29:25.067Z,12.80
2023-05-21T03:30:25.062Z,12.90
2023-05-21T03:31:25.237Z,12.30
2023-05-21T03:32:25.253Z,12.40
2023-05-21T03:33:25.065Z,13.00
2023-05-21T03:34:24.977Z,12.70
2023-05-21T03:35:25.036Z,12.70
2023-05-21T03:36:25.134Z,12.90
2023-05-21T03:37:25.100Z,12.50
2023-05-21T03:38:25.001Z,13.00
2023-05-21T03:39:25.058Z,12.50
2023-05-21T03:40:24.957Z,13.20
2023-05-21T03:41:24.923Z,12.20
2023-05-21T03:42:25.146Z,12.90
2023-05-21T03:43:24.907Z,12.20
2023-05-21T03:44:24.956Z,12.40
2023-05-21T03:45:24.949Z,12.90
2023-05-21T03:46:24.961Z,13.10
2023-05-21T03:47:24.975Z,13.00
2023-05-21T03:48:24.922Z,13.10
2023-05-21T03:49:24.922Z,13.10
2023-05-21T03:50:24.833Z,12.40
2023-05-21T03:51:24.839Z,12.40
2023-05-21T03:52:24.911Z,11.50
2023-05-21T03:53:24.813Z,11.70
2023-05-21T03:54:24.798Z,12.40
2023-05-21T03:55:24.774Z,12.00
2023-05-21T03:56:24.766Z,12.60
2023-05-21T03:57:24.776Z,12.40
2023-05-21T03:58:24.880Z,11.50
2023-05-21T03:59:24.780Z,11.90
2023-05-21T04:00:24.761Z,11.70
2023-05-21T04:01:24.638Z,11.50
2023-05-21T04:02:24.855Z,11.50
2023-05-21T04:03:25.018Z,10.60
2023-05-21T04:04:24.822Z,10.40
2023-05-21T04:05:24.715Z,10.60
2023-05-21T04:06:24.725Z,10.40
2023-05-21T04:07:24.715Z,10.20
2023-05-21T04:08:24.697Z,10.30
2023-05-21T04:09:24.683Z,9.70
2023-05-21T04:10:24.754Z,9.20
2023-05-21T04:11:24.668Z,9.70
2023-05-21T04:12:24.674Z,9.00
2023-05-21T04:13:24.648Z,8.80
2023-05-21T04:14:24.645Z,8.70
2023-05-21T04:15:24.714Z,9.30
2023-05-21T04:16:24.762Z,9.10
2023-05-21T04:17:24.598Z,9.20
2023-05-21T04:18:24.559Z,9.30
2023-05-21T04:19:24.668Z,9.40
2023-05-21T04:20:24.544Z,9.10
2023-05-21T04:21:24.560Z,9.70
2023-05-21T04:22:24.562Z,9.80
2023-05-21T04:23:24.549Z,10.60
2023-05-21T04:24:24.540Z,10.00
2023-05-21T04:25:24.608Z,10.80
2023-05-21T04:26:24.439Z,11.60
2023-05-21T04:27:24.453Z,11.10
2023-05-21T04:28:24.445Z,11.00
2023-05-21T04:29:24.436Z,10.70
2023-05-21T04:30:24.510Z,10.60
2023-05-21T04:31:24.487Z,10.50
2023-05-21T04:32:24.506Z,10.30
2023-05-21T04:33:24.520Z,9.90
2023-05-21T04:34:24.401Z,10.90
2023-05-21T04:35:24.406Z,10.20
2023-05-21T04:36:24.483Z,11.20
2023-05-21T04:37:24.473Z,11.00
2023-05-21T04:38:24.377Z,11.50
2023-05-21T04:39:24.366Z,11.20
2023-05-21T04:40:24.458Z,10.60
2023-05-21T04:41:24.369Z,10.80
2023-05-21T04:42:24.343Z,10.90
2023-05-21T04:43:24.262Z,10.80
2023-05-21T04:44:24.279Z,10.80
2023-05-21T04:45:24.277Z,11.00
2023-05-21T04:46:24.388Z,11.40
2023-05-21T04:47:24.292Z,11.00
2023-05-21T04:48:24.277Z,10.80
2023-05-21T04:49:24.225Z,11.70
2023-05-21T04:50:24.289Z,12.00
2023-05-21T04:51:24.194Z,11.20
2023-05-21T04:52:24.273Z,11.50
2023-05-21T04:53:24.200Z,11.10
2023-05-21T04:54:24.289Z,11.30
2023-05-21T04:55:24.126Z,11.40
2023-05-21T04:56:24.199Z,11.50
2023-05-21T04:57:24.179Z,11.20
2023-05-21T04:58:24.243Z,11.70
2023-05-21T04:59:24.139Z,11.20
2023-05-21T05:00:23.944Z,11.70
2023-05-21T05:01:24.066Z,11.00
2023-05-21T05:02:24.105Z,10.80
2023-05-21T05:03:24.266Z,11.20
2023-05-21T05:04:24.047Z,10.90
2023-05-21T05:05:24.043Z,11.50
2023-05-21T05:06:24.042Z,10.80
2023-05-21T05:07:24.067Z,11.10
2023-05-21T05:08:24.086Z,10.70
2023-05-21T05:09:24.014Z,11.10
2023-05-21T05:10:24.008Z,11.70
2023-05-21T05:11:24.002Z,11.30
2023-05-21T05:12:23.980Z,10.90
2023-05-21T05:13:24.082Z,11.20
2023-05-21T05:14:24.024Z,11.20
2023-05-21T05:15:23.969Z,11.10
2023-05-21T05:16:24.030Z,11.20
2023-05-21T05:17:23.995Z,11.70
2023-05-21T05:18:23.921Z,11.40
2023-05-21T05:19:24.010Z,11.30
2023-05-21T05:20:24.042Z,11.30
2023-05-21T05:21:23.928Z,11.30
2023-05-21T05:22:23.865Z,10.90
2023-05-21T05:23:23.865Z,11.40
2023-05-21T05:24:23.995Z,11.10
2023-05-21T05:25:23.868Z,10.60
2023-05-21T05:26:23.857Z,10.90
2023-05-21T05:27:23.863Z,10.60
2023-05-21T05:28:23.790Z,10.50
2023-05-21T05:29:23.776Z,10.30
2023-05-21T05:30:23.866Z,10.70
2023-05-21T05:31:23.922Z,10.70
2023-05-21T05:32:23.826Z,10.60
2023-05-21T05:33:23.809Z,11.10
2023-05-21T05:34:23.803Z,10.90
2023-05-21T05:35:23.741Z,10.90
2023-05-21T05:36:23.612Z,10.50
2023-05-21T05:37:23.613Z,10.30
2023-05-21T05:38:23.635Z,10.80
2023-05-21T05:39:23.653Z,10.40
2023-05-21T05:40:23.566Z,10.60
2023-05-21T05:41:23.604Z,11.00
2023-05-21T05:42:23.536Z,10.90
2023-05-21T05:43:23.546Z,11.00
2023-05-21T05:44:23.520Z,11.60
2023-05-21T05:45:23.461Z,10.90
2023-05-21T05:46:23.772Z,11.00
2023-05-21T05:47:23.556Z,11.00
2023-05-21T05:48:23.448Z,10.70
2023-05-21T05:49:23.465Z,10.80
2023-05-21T05:50:23.438Z,10.70
2023-05-21T05:51:23.445Z,11.00
2023-05-21T05:52:23.543Z,11.40
2023-05-21T05:53:23.425Z,11.20
2023-05-21T05:54:23.392Z,11.00
2023-05-21T05:55:23.404Z,10.70
2023-05-21T05:56:23.504Z,11.00
2023-05-21T05:57:23.491Z,11.00
2023-05-21T05:58:23.575Z,11.10
2023-05-21T05:59:23.455Z,10.60
2023-05-21T06:00:23.446Z,10.70
2023-05-21T06:01:23.459Z,10.60
2023-05-21T06:02:23.531Z,10.80
2023-05-21T06:03:23.562Z,11.00
2023-05-21T06:04:23.389Z,10.50
2023-05-21T06:05:23.430Z,11.20
2023-05-21T06:06:23.457Z,10.60
2023-05-21T06:07:23.321Z,10.90
2023-05-21T06:08:23.399Z,10.40
2023-05-21T06:09:23.262Z,11.00
2023-05-21T06:10:23.363Z,11.20
2023-05-21T06:11:23.366Z,11.10
2023-05-21T06:12:23.437Z,11.10
2023-05-21T06:13:23.352Z,11.10
2023-05-21T06:14:23.260Z,11.10
2023-05-21T06:15:23.334Z,11.40
2023-05-21T06:16:23.380Z,11.00
2023-05-21T06:17:23.343Z,11.00
2023-05-21T06:18:23.294Z,11.00
2023-05-21T06:19:23.331Z,11.10
2023-05-21T06:20:23.363Z,11.00
2023-05-21T06:21:23.267Z,11.60
2023-05-21T06:22:25.489Z,11.80
2023-05-21T06:23:23.235Z,11.70
2023-05-21T06:24:23.117Z,11.90
2023-05-21T06:25:23.104Z,12.00
2023-05-21T06:26:23.074Z,11.60
2023-05-21T06:27:23.302Z,11.90
2023-05-21T06:28:23.208Z,12.00
2023-05-21T06:29:23.038Z,12.00
2023-05-21T06:30:23.205Z,11.80
2023-05-21T06:31:23.163Z,11.10
2023-05-21T06:32:23.357Z,11.70
2023-05-21T06:33:23.286Z,11.90
2023-05-21T06:34:22.996Z,12.10
2023-05-21T06:35:23.117Z,12.00
2023-05-21T06:36:23.179Z,12.00
2023-05-21T06:37:25.249Z,12.50
2023-05-21T06:38:23.169Z,12.10
2023-05-21T06:39:22.913Z,12.40
2023-05-21T06:40:23.091Z,12.10
2023-05-21T06:41:23.011Z,12.10
2023-05-21T06:42:23.017Z,12.30
2023-05-21T06:43:23.005Z,12.40
2023-05-21T06:44:23.084Z,12.30
2023-05-21T06:45:22.997Z,11.70
2023-05-21T06:46:23.059Z,12.10
2023-05-21T06:47:22.941Z,11.80
2023-05-21T06:48:22.810Z,12.30
2023-05-21T06:49:23.053Z,12.30
2023-05-21T06:50:23.150Z,11.90
2023-05-21T06:51:22.914Z,12.30
2023-05-21T06:52:22.808Z,13.00
2023-05-21T06:53:22.974Z,12.20
2023-05-21T06:54:23.647Z,12.60
2023-05-21T06:55:22.928Z,12.90
2023-05-21T06:56:23.082Z,12.00
2023-05-21T06:57:22.923Z,12.70
2023-05-21T06:58:22.800Z,12.30
2023-05-21T06:59:22.904Z,12.90
2023-05-21T07:00:22.838Z,12.20
2023-05-21T07:01:22.982Z,12.90
2023-05-21T07:02:22.783Z,12.60
2023-05-21T07:03:22.943Z,12.10
2023-05-21T07:04:22.786Z,12.50
2023-05-21T07:05:22.699Z,12.80
2023-05-21T07:06:22.690Z,12.90
2023-05-21T07:07:22.677Z,12.50
2023-05-21T07:08:22.676Z,12.20
2023-05-21T07:09:22.740Z,12.40
2023-05-21T07:10:22.591Z,12.50
2023-05-21T07:11:22.616Z,12.70
2023-05-21T07:12:22.592Z,12.50
2023-05-21T07:13:22.550Z,11.80
2023-05-21T07:14:22.562Z,12.50
2023-05-21T07:15:22.597Z,12.50
2023-05-21T07:16:22.597Z,12.20
2023-05-21T07:17:22.638Z,13.10
2023-05-21T07:18:22.542Z,12.30
2023-05-21T07:19:22.639Z,12.50
2023-05-21T07:20:22.493Z,12.90
2023-05-21T07:21:22.537Z,12.90
2023-05-21T07:22:22.539Z,12.20
2023-05-21T07:23:22.547Z,12.60
2023-05-21T07:24:22.492Z,12.60
2023-05-21T07:25:22.474Z,12.50
2023-05-21T07:26:22.486Z,12.60
2023-05-21T07:27:25.870Z,12.70
2023-05-21T07:28:22.384Z,12.60
2023-05-21T07:29:22.413Z,12.60
2023-05-21T07:30:22.406Z,12.40
2023-05-21T07:31:22.454Z,12.60
2023-05-21T07:32:22.475Z,12.70
2023-05-21T07:33:22.520Z,12.10
2023-05-21T07:34:22.416Z,12.00
2023-05-21T07:35:22.390Z,12.10
2023-05-21T07:36:22.423Z,12.70
2023-05-21T07:37:22.389Z,12.00
2023-05-21T07:38:22.344Z,12.30
2023-05-21T07:39:22.409Z,12.20
2023-05-21T07:40:22.304Z,12.40
2023-05-21T07:41:22.457Z,12.00
2023-05-21T07:42:22.437Z,12.30
2023-05-21T07:43:22.408Z,12.10
2023-05-21T07:44:22.306Z,12.00
2023-05-21T07:45:22.294Z,12.30
2023-05-21T07:46:22.334Z,11.70
2023-05-21T07:47:22.316Z,11.80
2023-05-21T07:48:22.353Z,12.10
2023-05-21T07:49:22.271Z,11.40
2023-05-21T07:50:22.379Z,11.50
2023-05-21T07:51:22.229Z,11.80
2023-05-21T07:52:22.306Z,11.70
2023-05-21T07:53:22.254Z,12.30
2023-05-21T07:54:22.228Z,11.80
2023-05-21T07:55:22.193Z,11.40
2023-05-21T07:56:22.300Z,11.50
2023-05-21T07:57:22.179Z,11.20
2023-05-21T07:58:22.218Z,11.40
2023-05-21T07:59:22.117Z,11.20
2023-05-21T08:00:22.315Z,11.50
2023-05-21T08:01:22.109Z,11.80
2023-05-21T08:02:22.282Z,11.70
2023-05-21T08:03:22.211Z,11.50
2023-05-21T08:04:22.183Z,11.50
2023-05-21T08:05:22.073Z,11.00
2023-05-21T08:06:22.235Z,11.30
2023-05-21T08:07:22.031Z,10.90
2023-05-21T08:08:22.201Z,10.90
2023-05-21T08:09:22.044Z,10.90
2023-05-21T08:10:22.240Z,11.40
2023-05-21T08:11:22.052Z,11.00
2023-05-21T08:12:22.086Z,10.40
2023-05-21T08:13:21.964Z,11.50
2023-05-21T08:14:22.081Z,11.60
2023-05-21T08:15:21.969Z,11.00
2023-05-21T08:16:22.146Z,11.20
2023-05-21T08:17:22.031Z,11.60
2023-05-21T08:18:22.029Z,11.50
2023-05-21T08:19:22.107Z,11.60
2023-05-21T08:20:22.060Z,11.60
2023-05-21T08:21:22.007Z,11.60
2023-05-21T08:22:21.975Z,11.10
2023-05-21T08:23:22.004Z,11.20
2023-05-21T08:24:21.946Z,11.60
2023-05-21T08:25:22.095Z,11.40
2023-05-21T08:26:21.813Z,11.30
2023-05-21T08:27:21.863Z,12.10
2023-05-21T08:28:21.957Z,11.60
2023-05-21T08:29:22.025Z,11.30
2023-05-21T08:30:21.996Z,11.70
2023-05-21T08:31:21.890Z,11.90
2023-05-21T08:32:21.889Z,11.30
2023-05-21T08:33:21.896Z,11.20
2023-05-21T08:34:21.845Z,11.40
2023-05-21T08:35:21.859Z,12.10
2023-05-21T08:36:22.030Z,11.30
2023-05-21T08:37:21.900Z,12.20
2023-05-21T08:38:21.857Z,11.20
2023-05-21T08:39:21.817Z,10.60
2023-05-21T08:40:21.898Z,11.40
2023-05-21T08:41:21.810Z,11.30
2023-05-21T08:42:32.853Z,11.80
2023-05-21T08:43:21.799Z,11.50
2023-05-21T08:44:21.754Z,12.00
2023-05-21T08:45:21.672Z,12.10
2023-05-21T08:46:21.824Z,11.50
2023-05-21T08:47:21.929Z,12.30
2023-05-21T08:48:21.721Z,11.40
2023-05-21T08:49:21.616Z,11.60
2023-05-21T08:50:21.724Z,10.80
2023-05-21T08:51:21.737Z,11.60
2023-05-21T08:52:21.560Z,10.80
2023-05-21T08:53:28.032Z,11.00
2023-05-21T08:54:21.592Z,11.30
2023-05-21T08:55:21.496Z,11.60
2023-05-21T08:56:21.459Z,11.60
2023-05-21T08:57:21.728Z,11.20
2023-05-21T08:58:21.696Z,11.10
2023-05-21T08:59:21.725Z,11.50
2023-05-21T09:00:21.591Z,11.60
2023-05-21T09:01:23.398Z,11.00
2023-05-21T09:02:21.627Z,11.00
2023-05-21T09:03:21.703Z,10.70
2023-05-21T09:04:22.002Z,11.20
2023-05-21T09:05:21.554Z,11.00
2023-05-21T09:06:21.506Z,10.50
2023-05-21T09:07:21.527Z,11.30
2023-05-21T09:08:21.634Z,11.60
2023-05-21T09:09:21.474Z,11.00
2023-05-21T09:10:21.526Z,11.00
2023-05-21T09:11:21.485Z,10.50
2023-05-21T09:12:21.532Z,11.20
2023-05-21T09:13:21.548Z,10.40
2023-05-21T09:14:21.563Z,10.70
2023-05-21T09:15:21.443Z,10.90
2023-05-21T09:16:21.418Z,11.70
2023-05-21T09:17:21.432Z,11.20
2023-05-21T09:18:21.389Z,11.30
2023-05-21T09:19:21.504Z,11.60
2023-05-21T09:20:21.367Z,11.00
2023-05-21T09:21:21.383Z,11.10
2023-05-21T09:22:21.364Z,12.50
2023-05-21T09:23:21.364Z,11.30
2023-05-21T09:24:21.359Z,11.30
2023-05-21T09:25:21.434Z,11.20
2023-05-21T09:26:21.396Z,10.60
2023-05-21T09:27:21.285Z,11.60
2023-05-21T09:28:21.310Z,11.60
2023-05-21T09:29:21.327Z,12.70
2023-05-21T09:30:25.474Z,12.60
2023-05-21T09:31:21.283Z,10.90
2023-05-21T09:32:21.138Z,10.90
2023-05-21T09:33:21.402Z,11.20
2023-05-21T09:34:21.375Z,12.00
2023-05-21T09:35:21.281Z,11.00
2023-05-21T09:36:21.300Z,11.30
2023-05-21T09:38:21.181Z,12.20
2023-05-21T09:39:21.184Z,11.90
2023-05-21T09:40:21.178Z,11.40
2023-05-21T09:41:22.259Z,11.40
2023-05-21T09:42:21.190Z,11.80
2023-05-21T09:43:21.198Z,11.30
2023-05-21T09:44:21.148Z,11.80
2023-05-21T09:45:21.179Z,12.20
2023-05-21T09:46:21.233Z,11.00
2023-05-21T09:47:21.250Z,11.20
2023-05-21T09:48:21.093Z,11.80
2023-05-21T09:49:21.130Z,12.20
2023-05-21T09:50:21.093Z,12.00
2023-05-21T09:51:21.055Z,12.30
2023-05-21T09:52:21.169Z,11.90
2023-05-21T09:53:21.034Z,11.10
2023-05-21T09:54:21.060Z,11.10
2023-05-21T09:55:20.946Z,10.80
2023-05-21T09:56:21.056Z,11.10
2023-05-21T09:57:21.118Z,11.10
2023-05-21T09:58:21.071Z,11.20
2023-05-21T09:59:20.927Z,11.30
2023-05-21T10:00:21.025Z,11.20
2023-05-21T10:01:20.863Z,11.90
2023-05-21T10:02:21.002Z,11.20
2023-05-21T10:03:21.026Z,11.70
2023-05-21T10:04:21.075Z,11.50
2023-05-21T10:05:20.817Z,11.70
2023-05-21T10:06:20.918Z,11.30
2023-05-21T10:07:20.784Z,11.30
2023-05-21T10:08:20.791Z,12.50
2023-05-21T10:09:20.765Z,11.20
2023-05-21T10:10:20.764Z,11.20
2023-05-21T10:11:20.923Z,11.80
2023-05-21T10:12:20.814Z,11.40
2023-05-21T10:13:20.710Z,11.50
2023-05-21T10:14:20.700Z,11.40
2023-05-21T10:15:20.795Z,11.70
2023-05-21T10:16:20.749Z,11.20
2023-05-21T10:17:20.705Z,11.30
2023-05-21T10:18:20.761Z,11.30
2023-05-21T10:19:20.690Z,11.20
2023-05-21T10:20:20.652Z,12.20
2023-05-21T10:21:20.673Z,11.70
2023-05-21T10:22:20.633Z,11.50
2023-05-21T10:23:20.858Z,11.00
2023-05-21T10:24:20.755Z,11.50
2023-05-21T10:25:20.837Z,10.60
2023-05-21T10:26:20.725Z,11.90
2023-05-21T10:27:20.715Z,11.80
2023-05-21T10:28:20.804Z,11.60
2023-05-21T10:29:20.817Z,11.20
2023-05-21T10:30:20.787Z,11.60
2023-05-21T10:31:20.698Z,11.90
2023-05-21T10:32:20.759Z,11.20
2023-05-21T10:33:20.841Z,11.60
2023-05-21T10:34:20.732Z,11.30
2023-05-21T10:35:20.690Z,11.40
2023-05-21T10:36:20.571Z,11.70
2023-05-21T10:37:20.614Z,11.80
2023-05-21T10:38:20.677Z,11.50
2023-05-21T10:39:20.634Z,12.10
2023-05-21T10:40:20.555Z,12.30
2023-05-21T10:41:20.428Z,12.00
2023-05-21T10:42:20.440Z,12.00
2023-05-21T10:43:20.536Z,12.20
2023-05-21T10:44:20.556Z,12.50
2023-05-21T10:45:20.436Z,11.80
2023-05-21T10:46:20.463Z,12.40
2023-05-21T10:47:20.415Z,12.30
2023-05-21T10:48:20.621Z,12.10
2023-05-21T10:49:20.363Z,12.20
2023-05-21T10:50:20.463Z,12.60
2023-05-21T10:51:20.408Z,12.30
2023-05-21T10:52:20.350Z,11.60
2023-05-21T10:53:20.324Z,11.70
2023-05-21T10:54:20.468Z,12.00
2023-05-21T10:55:20.550Z,11.80
2023-05-21T10:56:20.336Z,12.30
2023-05-21T10:57:20.551Z,12.50
2023-05-21T10:58:20.501Z,12.50
2023-05-21T10:59:20.465Z,12.20
2023-05-21T11:00:20.326Z,12.30
2023-05-21T11:01:20.370Z,11.70
2023-05-21T11:02:20.381Z,12.40
2023-05-21T11:03:20.355Z,12.00
2023-05-21T11:04:20.218Z,12.50
2023-05-21T11:05:20.191Z,12.20
2023-05-21T11:06:20.231Z,12.20
2023-05-21T11:07:20.377Z,12.20
2023-05-21T11:08:20.161Z,12.00
2023-05-21T11:09:20.414Z,12.30
2023-05-21T11:10:20.173Z,13.00
2023-05-21T11:11:20.155Z,12.70
2023-05-21T11:12:20.420Z,12.50
2023-05-21T11:13:20.356Z,13.00
2023-05-21T11:14:20.932Z,12.40
2023-05-21T11:15:20.074Z,12.70
2023-05-21T11:16:20.189Z,12.80
2023-05-21T11:17:20.182Z,12.40
2023-05-21T11:18:20.084Z,12.90
2023-05-21T11:19:20.325Z,12.70
2023-05-21T11:20:20.269Z,13.10
2023-05-21T11:21:20.247Z,12.10
2023-05-21T11:22:20.065Z,12.00
2023-05-21T11:23:20.168Z,13.40
2023-05-21T11:24:20.003Z,12.90
2023-05-21T11:25:20.258Z,12.00
2023-05-21T11:26:20.116Z,12.60
2023-05-21T11:27:20.270Z,12.70
2023-05-21T11:28:20.237Z,12.50
2023-05-21T11:29:20.130Z,12.60
2023-05-21T11:30:20.120Z,12.90
2023-05-21T11:31:20.201Z,13.00
2023-05-21T11:32:20.131Z,12.80
2023-05-21T11:33:20.103Z,12.90
2023-05-21T11:34:20.299Z,13.30
2023-05-21T11:35:20.128Z,13.40
2023-05-21T11:36:20.017Z,13.10
2023-05-21T11:37:19.994Z,13.60
2023-05-21T11:38:20.153Z,13.10
2023-05-21T11:39:19.996Z,13.50
2023-05-21T11:40:20.075Z,12.90
2023-05-21T11:41:20.026Z,13.30
2023-05-21T11:42:19.981Z,13.40
2023-05-21T11:43:20.060Z,13.80
2023-05-21T11:44:20.151Z,13.20
2023-05-21T11:45:20.016Z,13.10
2023-05-21T11:46:20.022Z,13.60
2023-05-21T11:47:19.960Z,13.50
2023-05-21T11:48:19.896Z,12.80
2023-05-21T11:49:19.961Z,13.30
2023-05-21T11:50:20.020Z,13.30
2023-05-21T11:51:20.098Z,13.50
2023-05-21T11:52:19.901Z,14.50
2023-05-21T11:53:19.852Z,13.40
2023-05-21T11:54:19.824Z,14.30
2023-05-21T11:55:19.988Z,13.30
2023-05-21T11:56:20.049Z,13.70
2023-05-21T11:57:19.972Z,15.20
2023-05-21T11:58:19.825Z,13.70
2023-05-21T11:59:19.858Z,14.10
2023-05-21T12:00:19.880Z,13.30
2023-05-21T12:01:19.872Z,13.60
2023-05-21T12:02:19.925Z,13.90
2023-05-21T12:03:19.930Z,14.70
2023-05-21T12:04:19.813Z,14.00
2023-05-21T12:05:19.789Z,14.30
2023-05-21T12:06:19.878Z,13.60
2023-05-21T12:07:19.762Z,13.80
2023-05-21T12:08:19.779Z,14.60
2023-05-21T12:09:19.653Z,14.20
2023-05-21T12:10:19.671Z,14.30
2023-05-21T12:11:19.716Z,13.80
2023-05-21T12:12:19.650Z,13.40
2023-05-21T12:13:19.827Z,13.10
2023-05-21T12:14:19.650Z,13.40
2023-05-21T12:15:19.734Z,13.90
2023-05-21T12:16:19.770Z,13.60
2023-05-21T12:17:19.777Z,13.40
2023-05-21T12:18:19.645Z,13.20
2023-05-21T12:19:19.617Z,13.40
2023-05-21T12:20:19.632Z,13.80
2023-05-21T12:21:19.712Z,14.20
2023-05-21T12:22:19.482Z,13.20
2023-05-21T12:23:19.748Z,13.90
2023-05-21T12:24:19.573Z,14.20
2023-05-21T12:25:19.657Z,14.30
2023-05-21T12:26:19.507Z,14.20
2023-05-21T12:27:19.482Z,14.50
2023-05-21T12:28:19.589Z,13.70
2023-05-21T12:29:19.469Z,13.60
2023-05-21T12:30:19.461Z,13.50
2023-05-21T12:31:19.484Z,13.60
2023-05-21T12:32:19.674Z,14.10
2023-05-21T12:33:19.621Z,13.80
2023-05-21T12:34:19.482Z,14.90
2023-05-21T12:35:19.640Z,14.10
2023-05-21T12:36:19.478Z,14.50
2023-05-21T12:37:19.463Z,14.70
2023-05-21T12:38:19.619Z,14.20
2023-05-21T12:39:19.454Z,13.90
2023-05-21T12:40:19.436Z,14.80
2023-05-21T12:41:19.497Z,14.50
2023-05-21T12:42:19.344Z,14.70
2023-05-21T12:43:19.328Z,14.70
2023-05-21T12:44:19.325Z,14.50
2023-05-21T12:45:19.357Z,14.10
2023-05-21T12:46:19.522Z,15.50
2023-05-21T12:47:19.344Z,14.70
2023-05-21T12:48:19.340Z,14.90
2023-05-21T12:49:19.333Z,15.10
2023-05-21T12:50:19.124Z,14.70
2023-05-21T12:51:19.296Z,15.80
2023-05-21T12:52:19.302Z,15.60
2023-05-21T12:53:19.289Z,15.30
2023-05-21T12:54:19.280Z,15.60